sensor_id;sensor_type;location;lat;lon;timestamp;P1;durP1;ratioP1;P2;durP2;ratioP2
74293;SDS011;64044;59.904;10.738;2024-03-17T00:00:19;1.67;;;0.80;;
74293;SDS011;64044;59.904;10.738;2024-03-17T00:02:48;1.88;;;0.80;;
74293;SDS011;64044;59.904;10.738;2024-03-17T00:05:14;4.50;;;0.90;;
74293;SDS011;64044;59.904;10.738;2024-03-17T00:07:40;1.98;;;1.10;;
74293;SDS011;64044;59.904;10.738;2024-03-17T00:10:06;3.53;;;1.10;;
74293;SDS011;64044;59.904;10.738;2024-03-17T00:12:32;3.03;;;1.00;;
74293;SDS011;64044;59.904;10.738;2024-03-17T00:14:59;6.82;;;1.30;;
74293;SDS011;64044;59.904;10.738;2024-03-17T00:17:24;2.47;;;0.68;;
74293;SDS011;64044;59.904;10.738;2024-03-17T00:19:50;3.17;;;0.63;;
74293;SDS011;64044;59.904;10.738;2024-03-17T00:22:16;0.60;;;0.60;;
74293;SDS011;64044;59.904;10.738;2024-03-17T00:24:42;2.38;;;0.70;;
74293;SDS011;64044;59.904;10.738;2024-03-17T00:27:08;3.83;;;0.57;;
74293;SDS011;64044;59.904;10.738;2024-03-17T00:29:36;2.83;;;0.60;;
74293;SDS011;64044;59.904;10.738;2024-03-17T00:32:02;1.23;;;0.60;;
74293;SDS011;64044;59.904;10.738;2024-03-17T00:34:28;1.85;;;0.35;;
74293;SDS011;64044;59.904;10.738;2024-03-17T00:36:54;1.85;;;0.60;;
74293;SDS011;64044;59.904;10.738;2024-03-17T00:39:20;3.90;;;0.93;;
74293;SDS011;64044;59.904;10.738;2024-03-17T00:44:37;0.95;;;0.28;;
74293;SDS011;64044;59.904;10.738;2024-03-17T00:47:02;1.50;;;0.30;;
74293;SDS011;64044;59.904;10.738;2024-03-17T00:49:28;1.55;;;0.40;;
74293;SDS011;64044;59.904;10.738;2024-03-17T00:51:54;0.45;;;0.25;;
74293;SDS011;64044;59.904;10.738;2024-03-17T00:54:19;0.68;;;0.50;;
74293;SDS011;64044;59.904;10.738;2024-03-17T00:56:45;1.17;;;0.55;;
74293;SDS011;64044;59.904;10.738;2024-03-17T00:59:11;1.08;;;0.65;;
74293;SDS011;64044;59.904;10.738;2024-03-17T01:01:37;2.03;;;0.60;;
74293;SDS011;64044;59.904;10.738;2024-03-17T01:04:02;1.83;;;0.70;;
74293;SDS011;64044;59.904;10.738;2024-03-17T01:06:29;1.98;;;0.88;;
74293;SDS011;64044;59.904;10.738;2024-03-17T01:08:57;0.95;;;0.40;;
74293;SDS011;64044;59.904;10.738;2024-03-17T01:11:22;1.08;;;0.43;;
74293;SDS011;64044;59.904;10.738;2024-03-17T01:13:50;1.75;;;0.70;;
74293;SDS011;64044;59.904;10.738;2024-03-17T01:16:15;3.40;;;0.80;;
74293;SDS011;64044;59.904;10.738;2024-03-17T01:18:41;3.58;;;1.00;;
74293;SDS011;64044;59.904;10.738;2024-03-17T01:21:08;3.25;;;0.90;;
74293;SDS011;64044;59.904;10.738;2024-03-17T01:23:34;4.78;;;1.10;;
74293;SDS011;64044;59.904;10.738;2024-03-17T01:25:59;2.88;;;1.05;;
74293;SDS011;64044;59.904;10.738;2024-03-17T01:28:25;2.58;;;0.77;;
74293;SDS011;64044;59.904;10.738;2024-03-17T01:30:52;2.90;;;0.73;;
74293;SDS011;64044;59.904;10.738;2024-03-17T01:33:17;1.65;;;0.60;;
74293;SDS011;64044;59.904;10.738;2024-03-17T01:35:43;2.10;;;0.55;;
74293;SDS011;64044;59.904;10.738;2024-03-17T01:38:09;3.22;;;0.70;;
74293;SDS011;64044;59.904;10.738;2024-03-17T01:40:37;1.65;;;0.60;;
74293;SDS011;64044;59.904;10.738;2024-03-17T01:43:03;1.75;;;0.75;;
74293;SDS011;64044;59.904;10.738;2024-03-17T01:45:30;3.25;;;0.63;;
74293;SDS011;64044;59.904;10.738;2024-03-17T01:47:57;2.67;;;0.85;;
74293;SDS011;64044;59.904;10.738;2024-03-17T01:50:31;1.50;;;0.45;;
74293;SDS011;64044;59.904;10.738;2024-03-17T01:53:05;2.20;;;0.85;;
74293;SDS011;64044;59.904;10.738;2024-03-17T01:55:35;1.10;;;0.50;;
74293;SDS011;64044;59.904;10.738;2024-03-17T01:58:03;1.70;;;0.60;;
74293;SDS011;64044;59.904;10.738;2024-03-17T02:00:32;0.77;;;0.50;;
74293;SDS011;64044;59.904;10.738;2024-03-17T02:02:59;1.40;;;0.57;;
74293;SDS011;64044;59.904;10.738;2024-03-17T02:05:25;1.13;;;0.52;;
74293;SDS011;64044;59.904;10.738;2024-03-17T02:07:52;3.35;;;0.52;;
74293;SDS011;64044;59.904;10.738;2024-03-17T02:10:17;2.13;;;0.85;;
74293;SDS011;64044;59.904;10.738;2024-03-17T02:12:43;1.42;;;0.50;;
74293;SDS011;64044;59.904;10.738;2024-03-17T02:15:09;5.85;;;0.77;;
74293;SDS011;64044;59.904;10.738;2024-03-17T02:17:35;1.27;;;0.60;;
74293;SDS011;64044;59.904;10.738;2024-03-17T02:20:01;3.05;;;0.73;;
74293;SDS011;64044;59.904;10.738;2024-03-17T02:22:32;0.88;;;0.38;;
74293;SDS011;64044;59.904;10.738;2024-03-17T02:25:01;2.60;;;0.63;;
74293;SDS011;64044;59.904;10.738;2024-03-17T02:27:27;0.88;;;0.43;;
74293;SDS011;64044;59.904;10.738;2024-03-17T02:29:54;3.08;;;0.80;;
74293;SDS011;64044;59.904;10.738;2024-03-17T02:32:20;2.78;;;0.60;;
74293;SDS011;64044;59.904;10.738;2024-03-17T02:34:47;4.32;;;0.88;;
74293;SDS011;64044;59.904;10.738;2024-03-17T02:37:13;3.97;;;0.68;;
74293;SDS011;64044;59.904;10.738;2024-03-17T02:39:39;6.60;;;1.25;;
74293;SDS011;64044;59.904;10.738;2024-03-17T02:42:06;3.53;;;0.65;;
74293;SDS011;64044;59.904;10.738;2024-03-17T02:44:33;1.75;;;0.50;;
74293;SDS011;64044;59.904;10.738;2024-03-17T02:47:00;5.45;;;1.48;;
74293;SDS011;64044;59.904;10.738;2024-03-17T02:49:27;1.23;;;0.40;;
74293;SDS011;64044;59.904;10.738;2024-03-17T02:52:00;1.55;;;0.60;;
74293;SDS011;64044;59.904;10.738;2024-03-17T02:54:26;4.45;;;0.65;;
74293;SDS011;64044;59.904;10.738;2024-03-17T02:56:52;3.53;;;0.90;;
74293;SDS011;64044;59.904;10.738;2024-03-17T02:59:17;2.78;;;0.82;;
74293;SDS011;64044;59.904;10.738;2024-03-17T03:01:43;0.65;;;0.43;;
74293;SDS011;64044;59.904;10.738;2024-03-17T03:04:10;1.77;;;0.75;;
74293;SDS011;64044;59.904;10.738;2024-03-17T03:06:37;1.33;;;0.47;;
74293;SDS011;64044;59.904;10.738;2024-03-17T03:09:03;0.80;;;0.40;;
74293;SDS011;64044;59.904;10.738;2024-03-17T03:11:37;0.95;;;0.40;;
74293;SDS011;64044;59.904;10.738;2024-03-17T03:14:04;0.93;;;0.50;;
74293;SDS011;64044;59.904;10.738;2024-03-17T03:16:30;1.15;;;0.50;;
74293;SDS011;64044;59.904;10.738;2024-03-17T03:18:55;3.33;;;0.75;;
74293;SDS011;64044;59.904;10.738;2024-03-17T03:21:21;2.63;;;0.70;;
74293;SDS011;64044;59.904;10.738;2024-03-17T03:23:47;2.38;;;0.70;;
74293;SDS011;64044;59.904;10.738;2024-03-17T03:26:13;1.58;;;0.25;;
74293;SDS011;64044;59.904;10.738;2024-03-17T03:28:39;1.30;;;0.25;;
74293;SDS011;64044;59.904;10.738;2024-03-17T03:31:04;0.88;;;0.32;;
74293;SDS011;64044;59.904;10.738;2024-03-17T03:33:30;1.00;;;0.52;;
74293;SDS011;64044;59.904;10.738;2024-03-17T03:35:57;1.30;;;0.63;;
74293;SDS011;64044;59.904;10.738;2024-03-17T03:38:22;1.00;;;0.50;;
74293;SDS011;64044;59.904;10.738;2024-03-17T03:40:48;0.50;;;0.38;;
74293;SDS011;64044;59.904;10.738;2024-03-17T03:43:14;3.05;;;0.55;;
74293;SDS011;64044;59.904;10.738;2024-03-17T03:45:40;2.75;;;0.52;;
74293;SDS011;64044;59.904;10.738;2024-03-17T03:48:06;1.67;;;0.30;;
74293;SDS011;64044;59.904;10.738;2024-03-17T03:50:37;0.80;;;0.63;;
74293;SDS011;64044;59.904;10.738;2024-03-17T03:53:03;1.63;;;0.28;;
74293;SDS011;64044;59.904;10.738;2024-03-17T03:55:30;1.73;;;0.40;;
74293;SDS011;64044;59.904;10.738;2024-03-17T03:57:56;1.50;;;0.80;;
74293;SDS011;64044;59.904;10.738;2024-03-17T04:00:22;2.03;;;0.28;;
74293;SDS011;64044;59.904;10.738;2024-03-17T04:02:49;0.80;;;0.30;;
74293;SDS011;64044;59.904;10.738;2024-03-17T04:05:16;0.17;;;0.10;;
74293;SDS011;64044;59.904;10.738;2024-03-17T04:07:43;0.43;;;0.20;;
74293;SDS011;64044;59.904;10.738;2024-03-17T04:10:11;1.02;;;0.20;;
74293;SDS011;64044;59.904;10.738;2024-03-17T04:12:37;1.42;;;0.22;;
74293;SDS011;64044;59.904;10.738;2024-03-17T04:15:03;0.80;;;0.40;;
74293;SDS011;64044;59.904;10.738;2024-03-17T04:17:31;3.60;;;0.60;;
74293;SDS011;64044;59.904;10.738;2024-03-17T04:19:58;0.40;;;0.30;;
74293;SDS011;64044;59.904;10.738;2024-03-17T04:22:24;0.30;;;0.22;;
74293;SDS011;64044;59.904;10.738;2024-03-17T04:24:50;2.78;;;0.50;;
74293;SDS011;64044;59.904;10.738;2024-03-17T04:27:20;0.75;;;0.20;;
74293;SDS011;64044;59.904;10.738;2024-03-17T04:29:49;0.10;;;0.10;;
74293;SDS011;64044;59.904;10.738;2024-03-17T04:32:15;0.20;;;0.20;;
74293;SDS011;64044;59.904;10.738;2024-03-17T04:34:41;0.75;;;0.30;;
74293;SDS011;64044;59.904;10.738;2024-03-17T04:37:08;0.38;;;0.32;;
74293;SDS011;64044;59.904;10.738;2024-03-17T04:39:37;1.50;;;0.70;;
74293;SDS011;64044;59.904;10.738;2024-03-17T04:42:04;1.00;;;0.20;;
74293;SDS011;64044;59.904;10.738;2024-03-17T04:44:31;2.63;;;0.50;;
74293;SDS011;64044;59.904;10.738;2024-03-17T04:46:57;2.05;;;0.45;;
74293;SDS011;64044;59.904;10.738;2024-03-17T04:49:23;0.20;;;0.20;;
74293;SDS011;64044;59.904;10.738;2024-03-17T04:51:48;1.30;;;0.30;;
74293;SDS011;64044;59.904;10.738;2024-03-17T04:54:14;1.35;;;0.22;;
74293;SDS011;64044;59.904;10.738;2024-03-17T04:56:41;1.83;;;0.30;;
74293;SDS011;64044;59.904;10.738;2024-03-17T04:59:07;1.77;;;0.25;;
74293;SDS011;64044;59.904;10.738;2024-03-17T05:01:32;1.05;;;0.47;;
74293;SDS011;64044;59.904;10.738;2024-03-17T05:04:03;1.65;;;0.20;;
74293;SDS011;64044;59.904;10.738;2024-03-17T05:06:29;0.80;;;0.40;;
74293;SDS011;64044;59.904;10.738;2024-03-17T05:08:56;2.28;;;0.47;;
74293;SDS011;64044;59.904;10.738;2024-03-17T05:11:21;2.10;;;0.57;;
74293;SDS011;64044;59.904;10.738;2024-03-17T05:13:49;1.08;;;0.43;;
74293;SDS011;64044;59.904;10.738;2024-03-17T05:16:15;0.40;;;0.40;;
74293;SDS011;64044;59.904;10.738;2024-03-17T05:18:41;2.67;;;0.80;;
74293;SDS011;64044;59.904;10.738;2024-03-17T05:21:08;1.48;;;0.68;;
74293;SDS011;64044;59.904;10.738;2024-03-17T05:23:34;2.40;;;0.80;;
74293;SDS011;64044;59.904;10.738;2024-03-17T05:26:01;3.65;;;2.25;;
74293;SDS011;64044;59.904;10.738;2024-03-17T05:28:29;3.33;;;0.77;;
74293;SDS011;64044;59.904;10.738;2024-03-17T05:30:56;8.90;;;1.05;;
74293;SDS011;64044;59.904;10.738;2024-03-17T05:33:22;1.98;;;0.75;;
74293;SDS011;64044;59.904;10.738;2024-03-17T05:35:58;2.22;;;0.73;;
74293;SDS011;64044;59.904;10.738;2024-03-17T05:38:28;1.75;;;0.70;;
74293;SDS011;64044;59.904;10.738;2024-03-17T05:43:21;1.75;;;0.50;;
74293;SDS011;64044;59.904;10.738;2024-03-17T05:45:49;1.23;;;0.60;;
74293;SDS011;64044;59.904;10.738;2024-03-17T05:48:16;1.63;;;0.70;;
74293;SDS011;64044;59.904;10.738;2024-03-17T05:50:42;1.13;;;0.30;;
74293;SDS011;64044;59.904;10.738;2024-03-17T05:53:08;1.25;;;0.70;;
74293;SDS011;64044;59.904;10.738;2024-03-17T05:55:36;1.70;;;0.90;;
74293;SDS011;64044;59.904;10.738;2024-03-17T05:58:03;3.50;;;0.90;;
74293;SDS011;64044;59.904;10.738;2024-03-17T06:00:29;0.55;;;0.50;;
74293;SDS011;64044;59.904;10.738;2024-03-17T06:02:56;2.58;;;0.50;;
74293;SDS011;64044;59.904;10.738;2024-03-17T06:05:22;2.63;;;0.88;;
74293;SDS011;64044;59.904;10.738;2024-03-17T06:07:48;2.25;;;0.98;;
74293;SDS011;64044;59.904;10.738;2024-03-17T06:10:14;0.75;;;0.75;;
74293;SDS011;64044;59.904;10.738;2024-03-17T06:12:40;1.40;;;0.80;;
74293;SDS011;64044;59.904;10.738;2024-03-17T06:15:05;0.50;;;0.50;;
74293;SDS011;64044;59.904;10.738;2024-03-17T06:17:32;1.85;;;0.80;;
74293;SDS011;64044;59.904;10.738;2024-03-17T06:19:57;2.47;;;0.90;;
74293;SDS011;64044;59.904;10.738;2024-03-17T06:22:23;2.70;;;0.88;;
74293;SDS011;64044;59.904;10.738;2024-03-17T06:24:49;1.42;;;0.50;;
74293;SDS011;64044;59.904;10.738;2024-03-17T06:27:15;1.95;;;0.45;;
74293;SDS011;64044;59.904;10.738;2024-03-17T06:29:41;2.72;;;0.63;;
74293;SDS011;64044;59.904;10.738;2024-03-17T06:32:10;3.28;;;0.73;;
74293;SDS011;64044;59.904;10.738;2024-03-17T06:34:36;1.77;;;0.65;;
74293;SDS011;64044;59.904;10.738;2024-03-17T06:37:02;0.90;;;0.65;;
74293;SDS011;64044;59.904;10.738;2024-03-17T06:39:28;1.08;;;0.60;;
74293;SDS011;64044;59.904;10.738;2024-03-17T06:41:53;2.90;;;0.75;;
74293;SDS011;64044;59.904;10.738;2024-03-17T06:44:19;1.58;;;0.60;;
74293;SDS011;64044;59.904;10.738;2024-03-17T06:46:49;2.22;;;0.52;;
74293;SDS011;64044;59.904;10.738;2024-03-17T06:49:15;0.90;;;0.60;;
74293;SDS011;64044;59.904;10.738;2024-03-17T06:51:40;2.67;;;0.73;;
74293;SDS011;64044;59.904;10.738;2024-03-17T06:54:08;0.80;;;0.60;;
74293;SDS011;64044;59.904;10.738;2024-03-17T06:56:34;4.38;;;0.70;;
74293;SDS011;64044;59.904;10.738;2024-03-17T06:59:00;2.05;;;0.60;;
74293;SDS011;64044;59.904;10.738;2024-03-17T07:01:26;0.80;;;0.50;;
74293;SDS011;64044;59.904;10.738;2024-03-17T07:03:52;6.40;;;0.90;;
74293;SDS011;64044;59.904;10.738;2024-03-17T07:06:18;5.22;;;1.08;;
74293;SDS011;64044;59.904;10.738;2024-03-17T07:08:44;2.50;;;0.80;;
74293;SDS011;64044;59.904;10.738;2024-03-17T07:11:10;1.35;;;0.80;;
74293;SDS011;64044;59.904;10.738;2024-03-17T07:13:36;2.15;;;0.77;;
74293;SDS011;64044;59.904;10.738;2024-03-17T07:16:04;1.33;;;0.75;;
74293;SDS011;64044;59.904;10.738;2024-03-17T07:18:31;2.15;;;0.68;;
74293;SDS011;64044;59.904;10.738;2024-03-17T07:21:03;1.17;;;0.63;;
74293;SDS011;64044;59.904;10.738;2024-03-17T07:23:30;2.38;;;0.75;;
74293;SDS011;64044;59.904;10.738;2024-03-17T07:25:57;4.95;;;0.70;;
74293;SDS011;64044;59.904;10.738;2024-03-17T07:28:24;2.65;;;0.85;;
74293;SDS011;64044;59.904;10.738;2024-03-17T07:30:51;1.63;;;0.95;;
74293;SDS011;64044;59.904;10.738;2024-03-17T07:33:18;2.05;;;1.15;;
74293;SDS011;64044;59.904;10.738;2024-03-17T07:35:51;6.30;;;2.85;;
74293;SDS011;64044;59.904;10.738;2024-03-17T07:38:19;7.53;;;2.78;;
74293;SDS011;64044;59.904;10.738;2024-03-17T07:40:45;3.50;;;1.48;;
74293;SDS011;64044;59.904;10.738;2024-03-17T07:43:21;2.15;;;1.00;;
74293;SDS011;64044;59.904;10.738;2024-03-17T07:45:46;3.80;;;1.05;;
74293;SDS011;64044;59.904;10.738;2024-03-17T07:48:12;1.98;;;0.60;;
74293;SDS011;64044;59.904;10.738;2024-03-17T07:50:38;2.70;;;0.82;;
74293;SDS011;64044;59.904;10.738;2024-03-17T07:53:04;1.15;;;0.75;;
74293;SDS011;64044;59.904;10.738;2024-03-17T07:55:30;1.40;;;0.63;;
74293;SDS011;64044;59.904;10.738;2024-03-17T07:57:56;1.20;;;0.77;;
74293;SDS011;64044;59.904;10.738;2024-03-17T08:00:22;1.55;;;0.65;;
74293;SDS011;64044;59.904;10.738;2024-03-17T08:02:48;2.22;;;0.63;;
74293;SDS011;64044;59.904;10.738;2024-03-17T08:05:13;2.17;;;0.80;;
74293;SDS011;64044;59.904;10.738;2024-03-17T08:07:39;1.83;;;0.88;;
74293;SDS011;64044;59.904;10.738;2024-03-17T08:10:07;1.45;;;0.95;;
74293;SDS011;64044;59.904;10.738;2024-03-17T08:12:33;3.53;;;1.00;;
74293;SDS011;64044;59.904;10.738;2024-03-17T08:14:59;4.00;;;1.30;;
74293;SDS011;64044;59.904;10.738;2024-03-17T08:17:25;2.92;;;1.10;;
74293;SDS011;64044;59.904;10.738;2024-03-17T08:19:51;2.30;;;0.90;;
74293;SDS011;64044;59.904;10.738;2024-03-17T08:22:17;1.98;;;1.13;;
74293;SDS011;64044;59.904;10.738;2024-03-17T08:24:43;3.25;;;1.30;;
74293;SDS011;64044;59.904;10.738;2024-03-17T08:27:08;2.45;;;1.20;;
74293;SDS011;64044;59.904;10.738;2024-03-17T08:29:34;2.92;;;0.93;;
74293;SDS011;64044;59.904;10.738;2024-03-17T08:32:00;1.70;;;1.40;;
74293;SDS011;64044;59.904;10.738;2024-03-17T08:34:26;1.38;;;0.68;;
74293;SDS011;64044;59.904;10.738;2024-03-17T08:36:52;4.32;;;0.88;;
74293;SDS011;64044;59.904;10.738;2024-03-17T08:39:18;3.55;;;0.70;;
74293;SDS011;64044;59.904;10.738;2024-03-17T08:41:44;2.00;;;1.20;;
74293;SDS011;64044;59.904;10.738;2024-03-17T08:44:10;2.22;;;0.80;;
74293;SDS011;64044;59.904;10.738;2024-03-17T08:46:36;1.10;;;0.70;;
74293;SDS011;64044;59.904;10.738;2024-03-17T08:49:02;1.45;;;0.77;;
74293;SDS011;64044;59.904;10.738;2024-03-17T08:51:27;3.30;;;0.55;;
74293;SDS011;64044;59.904;10.738;2024-03-17T08:53:54;1.67;;;0.55;;
74293;SDS011;64044;59.904;10.738;2024-03-17T08:56:19;2.00;;;0.60;;
74293;SDS011;64044;59.904;10.738;2024-03-17T08:58:46;1.15;;;0.50;;
74293;SDS011;64044;59.904;10.738;2024-03-17T09:01:12;1.05;;;0.50;;
74293;SDS011;64044;59.904;10.738;2024-03-17T09:03:41;1.52;;;0.90;;
74293;SDS011;64044;59.904;10.738;2024-03-17T09:06:14;1.35;;;0.55;;
74293;SDS011;64044;59.904;10.738;2024-03-17T09:08:47;3.45;;;0.70;;
74293;SDS011;64044;59.904;10.738;2024-03-17T09:11:13;1.73;;;0.52;;
74293;SDS011;64044;59.904;10.738;2024-03-17T09:13:39;1.85;;;0.40;;
74293;SDS011;64044;59.904;10.738;2024-03-17T09:16:05;2.97;;;0.60;;
74293;SDS011;64044;59.904;10.738;2024-03-17T09:18:32;3.13;;;1.15;;
74293;SDS011;64044;59.904;10.738;2024-03-17T09:21:01;2.58;;;0.57;;
74293;SDS011;64044;59.904;10.738;2024-03-17T09:23:28;1.93;;;0.50;;
74293;SDS011;64044;59.904;10.738;2024-03-17T09:25:59;1.15;;;0.43;;
74293;SDS011;64044;59.904;10.738;2024-03-17T09:28:38;1.55;;;0.45;;
74293;SDS011;64044;59.904;10.738;2024-03-17T09:31:04;1.50;;;0.57;;
74293;SDS011;64044;59.904;10.738;2024-03-17T09:33:33;2.08;;;0.47;;
74293;SDS011;64044;59.904;10.738;2024-03-17T09:36:01;2.35;;;0.40;;
74293;SDS011;64044;59.904;10.738;2024-03-17T09:38:36;1.60;;;0.25;;
74293;SDS011;64044;59.904;10.738;2024-03-17T09:41:03;1.63;;;0.43;;
74293;SDS011;64044;59.904;10.738;2024-03-17T09:43:33;3.58;;;0.75;;
74293;SDS011;64044;59.904;10.738;2024-03-17T09:46:03;1.13;;;0.45;;
74293;SDS011;64044;59.904;10.738;2024-03-17T09:48:29;1.30;;;0.40;;
74293;SDS011;64044;59.904;10.738;2024-03-17T09:50:57;1.95;;;0.45;;
74293;SDS011;64044;59.904;10.738;2024-03-17T09:56:12;1.00;;;0.38;;
74293;SDS011;64044;59.904;10.738;2024-03-17T09:58:47;1.45;;;0.40;;
74293;SDS011;64044;59.904;10.738;2024-03-17T10:01:14;1.40;;;0.50;;
74293;SDS011;64044;59.904;10.738;2024-03-17T10:04:01;0.13;;;0.13;;
74293;SDS011;64044;59.904;10.738;2024-03-17T10:06:29;0.22;;;0.20;;
74293;SDS011;64044;59.904;10.738;2024-03-17T10:08:59;0.75;;;0.20;;
74293;SDS011;64044;59.904;10.738;2024-03-17T10:11:41;2.42;;;0.47;;
74293;SDS011;64044;59.904;10.738;2024-03-17T10:14:07;0.28;;;0.28;;
74293;SDS011;64044;59.904;10.738;2024-03-17T10:16:39;0.22;;;0.17;;
74293;SDS011;64044;59.904;10.738;2024-03-17T10:21:35;1.13;;;0.20;;
74293;SDS011;64044;59.904;10.738;2024-03-17T10:26:53;1.45;;;0.30;;
74293;SDS011;64044;59.904;10.738;2024-03-17T10:32:04;0.20;;;0.10;;
74293;SDS011;64044;59.904;10.738;2024-03-17T10:34:42;1.90;;;0.32;;
74293;SDS011;64044;59.904;10.738;2024-03-17T10:37:15;1.02;;;0.25;;
74293;SDS011;64044;59.904;10.738;2024-03-17T10:39:48;1.25;;;0.32;;
74293;SDS011;64044;59.904;10.738;2024-03-17T10:42:28;1.83;;;0.57;;
74293;SDS011;64044;59.904;10.738;2024-03-17T10:44:56;0.40;;;0.30;;
74293;SDS011;64044;59.904;10.738;2024-03-17T10:47:26;2.03;;;0.30;;
74293;SDS011;64044;59.904;10.738;2024-03-17T10:49:53;0.80;;;0.20;;
74293;SDS011;64044;59.904;10.738;2024-03-17T10:52:20;0.52;;;0.20;;
74293;SDS011;64044;59.904;10.738;2024-03-17T10:54:51;0.95;;;0.30;;
74293;SDS011;64044;59.904;10.738;2024-03-17T11:00:13;1.13;;;0.52;;
74293;SDS011;64044;59.904;10.738;2024-03-17T11:02:49;2.08;;;0.60;;
74293;SDS011;64044;59.904;10.738;2024-03-17T11:05:23;1.92;;;0.30;;
74293;SDS011;64044;59.904;10.738;2024-03-17T11:07:57;3.95;;;0.30;;
74293;SDS011;64044;59.904;10.738;2024-03-17T11:12:57;0.55;;;0.30;;
74293;SDS011;64044;59.904;10.738;2024-03-17T11:26:29;0.73;;;0.38;;
74293;SDS011;64044;59.904;10.738;2024-03-17T11:28:56;0.93;;;0.30;;
74293;SDS011;64044;59.904;10.738;2024-03-17T11:36:57;3.03;;;0.50;;
74293;SDS011;64044;59.904;10.738;2024-03-17T11:42:12;2.33;;;0.70;;
74293;SDS011;64044;59.904;10.738;2024-03-17T11:44:42;2.43;;;0.40;;
74293;SDS011;64044;59.904;10.738;2024-03-17T11:47:09;0.40;;;0.40;;
74293;SDS011;64044;59.904;10.738;2024-03-17T11:49:39;0.45;;;0.45;;
74293;SDS011;64044;59.904;10.738;2024-03-17T11:52:15;0.57;;;0.40;;
74293;SDS011;64044;59.904;10.738;2024-03-17T11:54:45;2.38;;;0.50;;
74293;SDS011;64044;59.904;10.738;2024-03-17T11:59:40;0.50;;;0.38;;
74293;SDS011;64044;59.904;10.738;2024-03-17T12:05:00;1.25;;;0.57;;
74293;SDS011;64044;59.904;10.738;2024-03-17T12:07:27;1.02;;;0.77;;
74293;SDS011;64044;59.904;10.738;2024-03-17T12:09:55;0.77;;;0.50;;
74293;SDS011;64044;59.904;10.738;2024-03-17T12:12:23;0.43;;;0.40;;
74293;SDS011;64044;59.904;10.738;2024-03-17T12:14:51;0.93;;;0.50;;
74293;SDS011;64044;59.904;10.738;2024-03-17T12:17:21;0.55;;;0.38;;
74293;SDS011;64044;59.904;10.738;2024-03-17T12:19:48;1.33;;;0.60;;
74293;SDS011;64044;59.904;10.738;2024-03-17T12:22:15;1.05;;;0.50;;
74293;SDS011;64044;59.904;10.738;2024-03-17T12:24:45;0.40;;;0.40;;
74293;SDS011;64044;59.904;10.738;2024-03-17T12:27:15;2.53;;;0.40;;
74293;SDS011;64044;59.904;10.738;2024-03-17T12:29:49;0.60;;;0.35;;
74293;SDS011;64044;59.904;10.738;2024-03-17T12:32:16;0.63;;;0.40;;
74293;SDS011;64044;59.904;10.738;2024-03-17T12:34:54;0.35;;;0.20;;
74293;SDS011;64044;59.904;10.738;2024-03-17T12:37:26;0.65;;;0.57;;
74293;SDS011;64044;59.904;10.738;2024-03-17T12:40:01;2.45;;;0.43;;
74293;SDS011;64044;59.904;10.738;2024-03-17T12:42:27;2.53;;;0.60;;
74293;SDS011;64044;59.904;10.738;2024-03-17T12:44:59;1.90;;;0.70;;
74293;SDS011;64044;59.904;10.738;2024-03-17T12:47:29;0.90;;;0.50;;
74293;SDS011;64044;59.904;10.738;2024-03-17T12:50:00;0.50;;;0.40;;
74293;SDS011;64044;59.904;10.738;2024-03-17T12:52:30;0.50;;;0.20;;
74293;SDS011;64044;59.904;10.738;2024-03-17T12:55:09;0.63;;;0.40;;
74293;SDS011;64044;59.904;10.738;2024-03-17T13:00:45;0.75;;;0.45;;
74293;SDS011;64044;59.904;10.738;2024-03-17T13:03:24;1.38;;;0.40;;
74293;SDS011;64044;59.904;10.738;2024-03-17T13:05:50;3.58;;;0.30;;
74293;SDS011;64044;59.904;10.738;2024-03-17T13:08:16;1.70;;;0.60;;
74293;SDS011;64044;59.904;10.738;2024-03-17T13:10:46;2.05;;;0.65;;
74293;SDS011;64044;59.904;10.738;2024-03-17T13:13:12;0.90;;;0.30;;
74293;SDS011;64044;59.904;10.738;2024-03-17T13:15:42;0.60;;;0.38;;
74293;SDS011;64044;59.904;10.738;2024-03-17T13:18:09;0.60;;;0.50;;
74293;SDS011;64044;59.904;10.738;2024-03-17T13:20:40;0.82;;;0.55;;
74293;SDS011;64044;59.904;10.738;2024-03-17T13:23:06;1.33;;;0.55;;
74293;SDS011;64044;59.904;10.738;2024-03-17T13:25:33;1.27;;;0.50;;
74293;SDS011;64044;59.904;10.738;2024-03-17T13:28:01;1.65;;;0.70;;
74293;SDS011;64044;59.904;10.738;2024-03-17T13:30:32;1.08;;;0.77;;
74293;SDS011;64044;59.904;10.738;2024-03-17T13:33:01;0.75;;;0.43;;
74293;SDS011;64044;59.904;10.738;2024-03-17T13:38:15;1.77;;;1.05;;
74293;SDS011;64044;59.904;10.738;2024-03-17T13:40:49;0.43;;;0.40;;
74293;SDS011;64044;59.904;10.738;2024-03-17T13:43:17;0.55;;;0.43;;
74293;SDS011;64044;59.904;10.738;2024-03-17T13:45:44;0.45;;;0.40;;
74293;SDS011;64044;59.904;10.738;2024-03-17T13:48:12;0.60;;;0.38;;
74293;SDS011;64044;59.904;10.738;2024-03-17T13:50:38;0.22;;;0.22;;
74293;SDS011;64044;59.904;10.738;2024-03-17T13:53:05;6.57;;;0.50;;
74293;SDS011;64044;59.904;10.738;2024-03-17T13:55:31;1.30;;;0.40;;
74293;SDS011;64044;59.904;10.738;2024-03-17T13:58:07;0.55;;;0.45;;
74293;SDS011;64044;59.904;10.738;2024-03-17T14:00:38;2.57;;;0.67;;
74293;SDS011;64044;59.904;10.738;2024-03-17T14:03:07;1.25;;;0.30;;
74293;SDS011;64044;59.904;10.738;2024-03-17T14:05:34;0.65;;;0.38;;
74293;SDS011;64044;59.904;10.738;2024-03-17T14:08:00;0.30;;;0.30;;
74293;SDS011;64044;59.904;10.738;2024-03-17T14:10:27;0.52;;;0.40;;
74293;SDS011;64044;59.904;10.738;2024-03-17T14:12:52;1.38;;;0.45;;
74293;SDS011;64044;59.904;10.738;2024-03-17T14:15:18;1.23;;;0.52;;
74293;SDS011;64044;59.904;10.738;2024-03-17T14:17:45;1.00;;;0.45;;
74293;SDS011;64044;59.904;10.738;2024-03-17T14:20:12;0.43;;;0.40;;
74293;SDS011;64044;59.904;10.738;2024-03-17T14:22:40;0.65;;;0.30;;
74293;SDS011;64044;59.904;10.738;2024-03-17T14:25:07;4.45;;;0.50;;
74293;SDS011;64044;59.904;10.738;2024-03-17T14:27:37;5.88;;;0.60;;
74293;SDS011;64044;59.904;10.738;2024-03-17T14:30:04;0.50;;;0.50;;
74293;SDS011;64044;59.904;10.738;2024-03-17T14:32:31;0.47;;;0.45;;
74293;SDS011;64044;59.904;10.738;2024-03-17T14:35:04;1.15;;;0.40;;
74293;SDS011;64044;59.904;10.738;2024-03-17T14:37:36;3.90;;;1.70;;
74293;SDS011;64044;59.904;10.738;2024-03-17T14:40:02;3.50;;;2.58;;
74293;SDS011;64044;59.904;10.738;2024-03-17T14:42:31;3.47;;;2.13;;
74293;SDS011;64044;59.904;10.738;2024-03-17T14:44:57;2.25;;;1.35;;
74293;SDS011;64044;59.904;10.738;2024-03-17T14:47:47;1.35;;;0.88;;
74293;SDS011;64044;59.904;10.738;2024-03-17T14:50:13;1.33;;;0.80;;
74293;SDS011;64044;59.904;10.738;2024-03-17T14:52:42;0.85;;;0.60;;
74293;SDS011;64044;59.904;10.738;2024-03-17T14:55:09;1.75;;;0.80;;
74293;SDS011;64044;59.904;10.738;2024-03-17T14:57:35;1.48;;;0.75;;
74293;SDS011;64044;59.904;10.738;2024-03-17T15:00:03;1.35;;;0.68;;
74293;SDS011;64044;59.904;10.738;2024-03-17T15:02:38;2.95;;;0.80;;
74293;SDS011;64044;59.904;10.738;2024-03-17T15:05:06;1.42;;;0.80;;
74293;SDS011;64044;59.904;10.738;2024-03-17T15:07:32;0.95;;;0.70;;
74293;SDS011;64044;59.904;10.738;2024-03-17T15:10:00;1.35;;;0.77;;
74293;SDS011;64044;59.904;10.738;2024-03-17T15:12:25;0.98;;;0.63;;
74293;SDS011;64044;59.904;10.738;2024-03-17T15:14:51;1.77;;;1.30;;
74293;SDS011;64044;59.904;10.738;2024-03-17T15:17:17;2.55;;;1.00;;
74293;SDS011;64044;59.904;10.738;2024-03-17T15:19:46;3.72;;;1.40;;
74293;SDS011;64044;59.904;10.738;2024-03-17T15:22:14;2.05;;;0.60;;
74293;SDS011;64044;59.904;10.738;2024-03-17T15:24:40;1.52;;;0.70;;
74293;SDS011;64044;59.904;10.738;2024-03-17T15:27:05;1.17;;;0.68;;